sensor_id;sensor_type;location;lat;lon;timestamp;pressure;altitude;pressure_sealevel;temperature;humidity
23339;BME280;11841;49.368;20.962;2023-08-12T00:00:34;96516.31;;;11.91;79.57
23339;BME280;11841;49.368;20.962;2023-08-12T00:03:21;96512.63;;;11.92;79.48
23339;BME280;11841;49.368;20.962;2023-08-12T00:06:06;96514.88;;;11.88;79.32
23339;BME280;11841;49.368;20.962;2023-08-12T00:08:52;96509.97;;;11.85;79.34
23339;BME280;11841;49.368;20.962;2023-08-12T00:11:38;96508.13;;;11.79;79.46
23339;BME280;11841;49.368;20.962;2023-08-12T00:14:23;96509.59;;;11.75;79.48
23339;BME280;11841;49.368;20.962;2023-08-12T00:17:08;96505.09;;;11.76;79.68
23339;BME280;11841;49.368;20.962;2023-08-12T00:19:54;96505.28;;;11.74;79.80
23339;BME280;11841;49.368;20.962;2023-08-12T00:22:40;96505.09;;;11.76;79.51
23339;BME280;11841;49.368;20.962;2023-08-12T00:25:26;96496.50;;;11.74;79.49
23339;BME280;11841;49.368;20.962;2023-08-12T00:28:11;96505.06;;;11.69;79.56
23339;BME280;11841;49.368;20.962;2023-08-12T00:30:57;96496.50;;;11.67;79.74
23339;BME280;11841;49.368;20.962;2023-08-12T00:33:43;96500.16;;;11.66;79.79
23339;BME280;11841;49.368;20.962;2023-08-12T00:36:28;96498.91;;;11.62;79.64
23339;BME280;11841;49.368;20.962;2023-08-12T00:39:13;96506.66;;;11.57;79.73
23339;BME280;11841;49.368;20.962;2023-08-12T00:41:59;96499.94;;;11.55;80.00
23339;BME280;11841;49.368;20.962;2023-08-12T00:44:44;96496.25;;;11.49;80.28
23339;BME280;11841;49.368;20.962;2023-08-12T00:47:30;96483.38;;;11.46;80.46
23339;BME280;11841;49.368;20.962;2023-08-12T00:50:15;96481.34;;;11.42;80.32
23339;BME280;11841;49.368;20.962;2023-08-12T00:53:01;96484.38;;;11.39;80.01
23339;BME280;11841;49.368;20.962;2023-08-12T00:55:46;96481.94;;;11.37;80.13
23339;BME280;11841;49.368;20.962;2023-08-12T00:58:32;96479.28;;;11.37;80.24
23339;BME280;11841;49.368;20.962;2023-08-12T01:01:18;96482.56;;;11.39;80.29
23339;BME280;11841;49.368;20.962;2023-08-12T01:04:04;96478.06;;;11.40;79.92
23339;BME280;11841;49.368;20.962;2023-08-12T01:06:49;96474.19;;;11.36;80.27
23339;BME280;11841;49.368;20.962;2023-08-12T01:09:35;96479.06;;;11.32;80.05
23339;BME280;11841;49.368;20.962;2023-08-12T01:12:29;96474.78;;;11.38;80.17
23339;BME280;11841;49.368;20.962;2023-08-12T01:15:20;96480.09;;;11.38;79.94
23339;BME280;11841;49.368;20.962;2023-08-12T01:18:07;96474.59;;;11.33;79.89
23339;BME280;11841;49.368;20.962;2023-08-12T01:20:53;96473.56;;;11.27;79.95
23339;BME280;11841;49.368;20.962;2023-08-12T01:23:38;96476.81;;;11.23;80.00
23339;BME280;11841;49.368;20.962;2023-08-12T01:26:24;96478.44;;;11.24;80.12
23339;BME280;11841;49.368;20.962;2023-08-12T01:29:10;96480.72;;;11.27;79.91
23339;BME280;11841;49.368;20.962;2023-08-12T01:32:00;96473.97;;;11.24;79.69
23339;BME280;11841;49.368;20.962;2023-08-12T01:34:50;96467.81;;;11.17;79.75
23339;BME280;11841;49.368;20.962;2023-08-12T01:37:39;96471.09;;;11.13;80.12
23339;BME280;11841;49.368;20.962;2023-08-12T01:40:24;96469.84;;;11.09;80.17
23339;BME280;11841;49.368;20.962;2023-08-12T01:43:11;96476.38;;;11.06;79.95
23339;BME280;11841;49.368;20.962;2023-08-12T01:45:57;96480.44;;;11.02;80.21
23339;BME280;11841;49.368;20.962;2023-08-12T01:48:42;96474.72;;;10.98;80.66
23339;BME280;11841;49.368;20.962;2023-08-12T01:51:29;96474.72;;;10.98;80.45
23339;BME280;11841;49.368;20.962;2023-08-12T01:54:14;96471.25;;;10.98;80.27
23339;BME280;11841;49.368;20.962;2023-08-12T01:57:01;96478.00;;;10.94;80.23
23339;BME280;11841;49.368;20.962;2023-08-12T01:59:48;96475.13;;;10.89;80.25
23339;BME280;11841;49.368;20.962;2023-08-12T02:02:33;96471.03;;;10.86;80.48
23339;BME280;11841;49.368;20.962;2023-08-12T02:05:19;96468.97;;;10.82;80.75
23339;BME280;11841;49.368;20.962;2023-08-12T02:08:05;96468.56;;;10.78;80.63
23339;BME280;11841;49.368;20.962;2023-08-12T02:10:50;96472.25;;;10.77;80.68
23339;BME280;11841;49.368;20.962;2023-08-12T02:13:35;96470.38;;;10.78;80.62
23339;BME280;11841;49.368;20.962;2023-08-12T02:16:21;96469.97;;;10.81;80.61
23339;BME280;11841;49.368;20.962;2023-08-12T02:19:06;96469.19;;;10.80;80.64
23339;BME280;11841;49.368;20.962;2023-08-12T02:21:52;96469.75;;;10.76;80.58
23339;BME280;11841;49.368;20.962;2023-08-12T02:24:37;96472.19;;;10.71;80.61
23339;BME280;11841;49.368;20.962;2023-08-12T02:27:23;96477.91;;;10.68;80.69
23339;BME280;11841;49.368;20.962;2023-08-12T02:30:08;96468.53;;;10.65;80.78
23339;BME280;11841;49.368;20.962;2023-08-12T02:32:54;96466.03;;;10.64;80.65
23339;BME280;11841;49.368;20.962;2023-08-12T02:35:39;96466.44;;;10.61;80.59
23339;BME280;11841;49.368;20.962;2023-08-12T02:38:25;96468.47;;;10.59;80.66
23339;BME280;11841;49.368;20.962;2023-08-12T02:41:10;96464.41;;;10.56;80.66
23339;BME280;11841;49.368;20.962;2023-08-12T02:43:56;96468.25;;;10.54;80.77
23339;BME280;11841;49.368;20.962;2023-08-12T02:46:41;96473.31;;;10.49;80.76
23339;BME280;11841;49.368;20.962;2023-08-12T02:49:26;96478.03;;;10.47;80.78
23339;BME280;11841;49.368;20.962;2023-08-12T02:52:13;96468.81;;;10.43;80.96
23339;BME280;11841;49.368;20.962;2023-08-12T02:54:58;96477.97;;;10.40;81.15
23339;BME280;11841;49.368;20.962;2023-08-12T02:57:43;96475.53;;;10.39;81.22
23339;BME280;11841;49.368;20.962;2023-08-12T03:00:29;96476.56;;;10.38;81.03
23339;BME280;11841;49.368;20.962;2023-08-12T03:03:14;96475.09;;;10.35;81.54
23339;BME280;11841;49.368;20.962;2023-08-12T03:05:59;96479.81;;;10.40;81.44
23339;BME280;11841;49.368;20.962;2023-08-12T03:08:45;96485.16;;;10.46;81.14
23339;BME280;11841;49.368;20.962;2023-08-12T03:11:30;96493.31;;;10.45;81.03
23339;BME280;11841;49.368;20.962;2023-08-12T03:14:15;96492.06;;;10.41;80.97
23339;BME280;11841;49.368;20.962;2023-08-12T03:17:01;96502.22;;;10.37;81.20
23339;BME280;11841;49.368;20.962;2023-08-12T03:19:46;96496.94;;;10.37;81.07
23339;BME280;11841;49.368;20.962;2023-08-12T03:22:32;96497.34;;;10.34;81.03
23339;BME280;11841;49.368;20.962;2023-08-12T03:25:17;96498.72;;;10.30;81.03
23339;BME280;11841;49.368;20.962;2023-08-12T03:28:03;96498.28;;;10.27;81.27
23339;BME280;11841;49.368;20.962;2023-08-12T03:30:52;96495.03;;;10.25;81.36
23339;BME280;11841;49.368;20.962;2023-08-12T03:33:37;96510.75;;;10.26;81.31
23339;BME280;11841;49.368;20.962;2023-08-12T03:36:23;96505.03;;;10.23;81.11
23339;BME280;11841;49.368;20.962;2023-08-12T03:39:08;96513.16;;;10.21;81.46
23339;BME280;11841;49.368;20.962;2023-08-12T03:41:54;96514.34;;;10.19;81.72
23339;BME280;11841;49.368;20.962;2023-08-12T03:44:39;96512.72;;;10.18;81.85
23339;BME280;11841;49.368;20.962;2023-08-12T03:47:25;96511.72;;;10.19;81.74
23339;BME280;11841;49.368;20.962;2023-08-12T03:50:10;96518.22;;;10.16;81.84
23339;BME280;11841;49.368;20.962;2023-08-12T03:52:56;96518.47;;;10.21;81.69
23339;BME280;11841;49.368;20.962;2023-08-12T03:55:41;96518.50;;;10.28;81.50
23339;BME280;11841;49.368;20.962;2023-08-12T03:58:26;96523.81;;;10.28;81.85
23339;BME280;11841;49.368;20.962;2023-08-12T04:01:12;96530.09;;;10.27;81.82
23339;BME280;11841;49.368;20.962;2023-08-12T04:03:57;96527.44;;;10.27;82.32
23339;BME280;11841;49.368;20.962;2023-08-12T04:06:42;96529.31;;;10.26;82.29
23339;BME280;11841;49.368;20.962;2023-08-12T04:09:28;96521.97;;;10.28;82.70
23339;BME280;11841;49.368;20.962;2023-08-12T04:12:13;96525.47;;;10.35;82.56
23339;BME280;11841;49.368;20.962;2023-08-12T04:14:59;96527.91;;;10.37;82.51
23339;BME280;11841;49.368;20.962;2023-08-12T04:17:45;96526.28;;;10.36;82.78
23339;BME280;11841;49.368;20.962;2023-08-12T04:20:31;96515.69;;;10.36;83.25
23339;BME280;11841;49.368;20.962;2023-08-12T04:23:16;96518.97;;;10.38;83.57
23339;BME280;11841;49.368;20.962;2023-08-12T04:26:02;96519.81;;;10.45;83.89
23339;BME280;11841;49.368;20.962;2023-08-12T04:28:47;96510.66;;;10.47;84.41
23339;BME280;11841;49.368;20.962;2023-08-12T04:31:33;96513.31;;;10.54;84.27
23339;BME280;11841;49.368;20.962;2023-08-12T04:34:18;96514.56;;;10.58;84.09
23339;BME280;11841;49.368;20.962;2023-08-12T04:37:03;96512.13;;;10.56;84.25
23339;BME280;11841;49.368;20.962;2023-08-12T04:39:49;96514.56;;;10.58;84.47
23339;BME280;11841;49.368;20.962;2023-08-12T04:42:34;96518.47;;;10.62;84.96
23339;BME280;11841;49.368;20.962;2023-08-12T04:45:20;96511.31;;;10.62;85.02
23339;BME280;11841;49.368;20.962;2023-08-12T04:48:06;96514.03;;;10.69;84.91
23339;BME280;11841;49.368;20.962;2023-08-12T04:50:53;96504.84;;;10.71;85.15
23339;BME280;11841;49.368;20.962;2023-08-12T04:53:39;96507.91;;;10.75;85.47
23339;BME280;11841;49.368;20.962;2023-08-12T04:56:24;96512.81;;;10.78;85.78
23339;BME280;11841;49.368;20.962;2023-08-12T04:59:10;96512.25;;;10.82;85.86
23339;BME280;11841;49.368;20.962;2023-08-12T05:01:55;96511.63;;;10.87;85.97
23339;BME280;11841;49.368;20.962;2023-08-12T05:04:50;96518.00;;;10.92;86.15
23339;BME280;11841;49.368;20.962;2023-08-12T05:07:36;96517.19;;;10.98;87.03
23339;BME280;11841;49.368;20.962;2023-08-12T05:10:25;96516.41;;;11.05;86.79
23339;BME280;11841;49.368;20.962;2023-08-12T05:13:10;96512.72;;;11.12;87.05
23339;BME280;11841;49.368;20.962;2023-08-12T05:15:56;96512.75;;;11.19;87.05
23339;BME280;11841;49.368;20.962;2023-08-12T05:18:41;96514.81;;;11.23;87.36
23339;BME280;11841;49.368;20.962;2023-08-12T05:21:27;96507.84;;;11.29;87.43
23339;BME280;11841;49.368;20.962;2023-08-12T05:24:12;96508.47;;;11.31;89.19
23339;BME280;11841;49.368;20.962;2023-08-12T05:26:58;96508.47;;;11.37;88.93
23339;BME280;11841;49.368;20.962;2023-08-12T05:30:01;96508.50;;;11.44;89.27
23339;BME280;11841;49.368;20.962;2023-08-12T05:32:47;96510.97;;;11.52;88.73
23339;BME280;11841;49.368;20.962;2023-08-12T05:35:36;96505.66;;;11.58;89.41
23339;BME280;11841;49.368;20.962;2023-08-12T05:38:21;96511.00;;;11.65;89.72
23339;BME280;11841;49.368;20.962;2023-08-12T05:41:06;96509.78;;;11.67;90.50
23339;BME280;11841;49.368;20.962;2023-08-12T05:43:52;96510.00;;;11.72;90.91
23339;BME280;11841;49.368;20.962;2023-08-12T05:46:38;96498.53;;;11.78;91.22
23339;BME280;11841;49.368;20.962;2023-08-12T05:49:23;96498.53;;;11.85;91.64
23339;BME280;11841;49.368;20.962;2023-08-12T05:52:09;96493.41;;;11.90;92.14
23339;BME280;11841;49.368;20.962;2023-08-12T05:54:55;96495.69;;;11.99;91.53
23339;BME280;11841;49.368;20.962;2023-08-12T05:57:41;96493.44;;;12.03;92.44
23339;BME280;11841;49.368;20.962;2023-08-12T06:00:26;96492.38;;;12.10;91.89
23339;BME280;11841;49.368;20.962;2023-08-12T06:03:12;96485.81;;;12.20;91.75
23339;BME280;11841;49.368;20.962;2023-08-12T06:05:57;96478.44;;;12.28;91.80
23339;BME280;11841;49.368;20.962;2023-08-12T06:08:42;96478.41;;;12.35;92.90
23339;BME280;11841;49.368;20.962;2023-08-12T06:11:28;96479.84;;;12.44;93.54
23339;BME280;11841;49.368;20.962;2023-08-12T06:14:14;96477.94;;;12.51;93.14
23339;BME280;11841;49.368;20.962;2023-08-12T06:16:59;96477.53;;;12.60;92.70
23339;BME280;11841;49.368;20.962;2023-08-12T06:19:44;96480.16;;;12.67;93.13
23339;BME280;11841;49.368;20.962;2023-08-12T06:22:29;96476.63;;;12.73;93.16
23339;BME280;11841;49.368;20.962;2023-08-12T06:25:15;96468.44;;;12.81;94.06
23339;BME280;11841;49.368;20.962;2023-08-12T06:28:00;96479.66;;;12.89;93.86
23339;BME280;11841;49.368;20.962;2023-08-12T06:30:47;96478.56;;;12.97;93.94
23339;BME280;11841;49.368;20.962;2023-08-12T06:33:33;96467.69;;;13.05;93.60
23339;BME280;11841;49.368;20.962;2023-08-12T06:36:18;96467.47;;;13.13;93.70
23339;BME280;11841;49.368;20.962;2023-08-12T06:39:03;96473.13;;;13.23;93.36
23339;BME280;11841;49.368;20.962;2023-08-12T06:41:49;96467.56;;;13.31;93.95
23339;BME280;11841;49.368;20.962;2023-08-12T06:44:35;96466.44;;;13.45;93.87
23339;BME280;11841;49.368;20.962;2023-08-12T06:47:21;96463.06;;;13.56;93.93
23339;BME280;11841;49.368;20.962;2023-08-12T06:50:07;96463.38;;;13.66;94.04
23339;BME280;11841;49.368;20.962;2023-08-12T06:52:53;96466.97;;;13.78;95.10
23339;BME280;11841;49.368;20.962;2023-08-12T06:55:43;96465.00;;;13.92;95.02
23339;BME280;11841;49.368;20.962;2023-08-12T06:58:29;96462.25;;;14.05;95.20
23339;BME280;11841;49.368;20.962;2023-08-12T07:01:14;96469.50;;;14.16;94.90
23339;BME280;11841;49.368;20.962;2023-08-12T07:04:00;96466.16;;;14.27;94.09
23339;BME280;11841;49.368;20.962;2023-08-12T07:06:45;96459.84;;;14.39;94.31
23339;BME280;11841;49.368;20.962;2023-08-12T07:09:30;96456.00;;;14.53;93.61
23339;BME280;11841;49.368;20.962;2023-08-12T07:12:16;96451.31;;;14.67;93.30
23339;BME280;11841;49.368;20.962;2023-08-12T07:15:01;96456.63;;;14.85;92.46
23339;BME280;11841;49.368;20.962;2023-08-12T07:17:47;96446.34;;;15.00;91.36
23339;BME280;11841;49.368;20.962;2023-08-12T07:20:32;96443.66;;;15.18;89.71
23339;BME280;11841;49.368;20.962;2023-08-12T07:23:18;96440.19;;;15.29;89.36
23339;BME280;11841;49.368;20.962;2023-08-12T07:26:03;96445.81;;;15.39;90.42
23339;BME280;11841;49.368;20.962;2023-08-12T07:28:48;96441.44;;;15.45;90.32
23339;BME280;11841;49.368;20.962;2023-08-12T07:31:34;96449.69;;;15.55;90.75
23339;BME280;11841;49.368;20.962;2023-08-12T07:34:19;96441.34;;;15.63;91.83
23339;BME280;11841;49.368;20.962;2023-08-12T07:37:05;96442.06;;;15.82;90.16
23339;BME280;11841;49.368;20.962;2023-08-12T07:39:50;96444.28;;;15.96;87.19
23339;BME280;11841;49.368;20.962;2023-08-12T07:42:35;96444.38;;;16.13;85.05
23339;BME280;11841;49.368;20.962;2023-08-12T07:45:21;96436.03;;;16.32;82.60
23339;BME280;11841;49.368;20.962;2023-08-12T07:48:06;96436.69;;;16.39;82.28
23339;BME280;11841;49.368;20.962;2023-08-12T07:50:56;96433.91;;;16.57;80.82
23339;BME280;11841;49.368;20.962;2023-08-12T07:53:42;96428.91;;;16.61;78.88
23339;BME280;11841;49.368;20.962;2023-08-12T07:56:27;96431.44;;;16.67;76.72
23339;BME280;11841;49.368;20.962;2023-08-12T07:59:13;96433.22;;;16.90;74.48
23339;BME280;11841;49.368;20.962;2023-08-12T08:01:58;96431.63;;;17.06;74.76
23339;BME280;11841;49.368;20.962;2023-08-12T08:04:44;96434.03;;;17.19;73.35
23339;BME280;11841;49.368;20.962;2023-08-12T08:07:29;96421.41;;;17.31;73.28
23339;BME280;11841;49.368;20.962;2023-08-12T08:10:15;96425.75;;;17.48;72.88
23339;BME280;11841;49.368;20.962;2023-08-12T08:13:00;96428.91;;;17.62;72.85
23339;BME280;11841;49.368;20.962;2023-08-12T08:15:46;96425.44;;;17.78;72.29
23339;BME280;11841;49.368;20.962;2023-08-12T08:18:31;96417.63;;;17.93;71.95
23339;BME280;11841;49.368;20.962;2023-08-12T08:21:16;96418.09;;;18.06;72.20
23339;BME280;11841;49.368;20.962;2023-08-12T08:24:02;96421.69;;;18.12;71.82
23339;BME280;11841;49.368;20.962;2023-08-12T08:26:47;96416.53;;;18.27;71.43
23339;BME280;11841;49.368;20.962;2023-08-12T08:29:33;96420.47;;;18.41;71.51
23339;BME280;11841;49.368;20.962;2023-08-12T08:32:18;96421.31;;;18.63;70.39
23339;BME280;11841;49.368;20.962;2023-08-12T08:35:04;96421.00;;;18.81;71.96
23339;BME280;11841;49.368;20.962;2023-08-12T08:37:49;96408.06;;;19.00;68.20
23339;BME280;11841;49.368;20.962;2023-08-12T08:40:35;96414.47;;;19.20;66.42
23339;BME280;11841;49.368;20.962;2023-08-12T08:43:21;96409.00;;;19.37;65.19
23339;BME280;11841;49.368;20.962;2023-08-12T08:46:10;96415.03;;;19.49;65.17
23339;BME280;11841;49.368;20.962;2023-08-12T08:48:58;96400.13;;;19.63;64.30
23339;BME280;11841;49.368;20.962;2023-08-12T08:51:46;96406.41;;;19.79;63.48
23339;BME280;11841;49.368;20.962;2023-08-12T08:54:31;96405.97;;;19.92;63.96
23339;BME280;11841;49.368;20.962;2023-08-12T08:57:18;96393.41;;;20.07;62.57
23339;BME280;11841;49.368;20.962;2023-08-12T09:00:15;96395.06;;;20.08;62.27
23339;BME280;11841;49.368;20.962;2023-08-12T09:03:05;96393.72;;;20.11;62.57
23339;BME280;11841;49.368;20.962;2023-08-12T09:05:51;96393.84;;;20.26;61.69
23339;BME280;11841;49.368;20.962;2023-08-12T09:08:40;96390.13;;;20.37;59.98
23339;BME280;11841;49.368;20.962;2023-08-12T09:11:25;96393.41;;;20.44;60.41
23339;BME280;11841;49.368;20.962;2023-08-12T09:14:11;96385.34;;;20.49;60.21
23339;BME280;11841;49.368;20.962;2023-08-12T09:16:57;96388.06;;;20.54;60.69
23339;BME280;11841;49.368;20.962;2023-08-12T09:19:42;96388.94;;;20.65;62.66
23339;BME280;11841;49.368;20.962;2023-08-12T09:22:27;96386.53;;;20.73;61.08
23339;BME280;11841;49.368;20.962;2023-08-12T09:25:13;96379.78;;;20.71;60.19
23339;BME280;11841;49.368;20.962;2023-08-12T09:27:59;96372.81;;;20.80;61.83
23339;BME280;11841;49.368;20.962;2023-08-12T09:30:50;96363.16;;;20.89;60.55
23339;BME280;11841;49.368;20.962;2023-08-12T09:33:40;96362.34;;;20.93;60.45
23339;BME280;11841;49.368;20.962;2023-08-12T09:36:29;96364.81;;;21.05;60.47
23339;BME280;11841;49.368;20.962;2023-08-12T09:39:16;96364.56;;;21.11;58.10
23339;BME280;11841;49.368;20.962;2023-08-12T09:42:01;96354.06;;;21.15;59.74
23339;BME280;11841;49.368;20.962;2023-08-12T09:44:48;96355.44;;;21.22;59.88
23339;BME280;11841;49.368;20.962;2023-08-12T09:47:33;96353.00;;;21.31;60.33
23339;BME280;11841;49.368;20.962;2023-08-12T09:50:29;96344.66;;;21.37;59.24
23339;BME280;11841;49.368;20.962;2023-08-12T09:53:16;96337.91;;;21.40;60.36
23339;BME280;11841;49.368;20.962;2023-08-12T09:56:11;96357.88;;;21.49;59.82
23339;BME280;11841;49.368;20.962;2023-08-12T09:58:57;96347.06;;;21.59;58.80
23339;BME280;11841;49.368;20.962;2023-08-12T10:01:43;96347.06;;;21.69;58.42
23339;BME280;11841;49.368;20.962;2023-08-12T10:04:36;96345.72;;;21.72;58.56
23339;BME280;11841;49.368;20.962;2023-08-12T10:07:23;96343.59;;;21.79;58.03
23339;BME280;11841;49.368;20.962;2023-08-12T10:10:09;96340.91;;;21.89;57.63
23339;BME280;11841;49.368;20.962;2023-08-12T10:12:55;96331.41;;;21.96;58.72
23339;BME280;11841;49.368;20.962;2023-08-12T10:15:41;96337.88;;;22.05;58.89
23339;BME280;11841;49.368;20.962;2023-08-12T10:18:28;96335.72;;;22.12;59.20
23339;BME280;11841;49.368;20.962;2023-08-12T10:21:14;96336.50;;;22.18;58.63
23339;BME280;11841;49.368;20.962;2023-08-12T10:23:59;96344.03;;;22.31;58.84
23339;BME280;11841;49.368;20.962;2023-08-12T10:26:45;96329.44;;;22.32;55.78
23339;BME280;11841;49.368;20.962;2023-08-12T10:29:31;96321.88;;;22.29;56.34
23339;BME280;11841;49.368;20.962;2023-08-12T10:32:16;96329.44;;;22.32;56.46
23339;BME280;11841;49.368;20.962;2023-08-12T10:35:02;96324.53;;;22.39;56.42
23339;BME280;11841;49.368;20.962;2023-08-12T10:37:49;96335.31;;;22.49;56.38
23339;BME280;11841;49.368;20.962;2023-08-12T10:40:38;96326.16;;;22.55;55.46
23339;BME280;11841;49.368;20.962;2023-08-12T10:43:26;96322.31;;;22.66;56.45
23339;BME280;11841;49.368;20.962;2023-08-12T10:46:21;96326.31;;;22.79;56.27
23339;BME280;11841;49.368;20.962;2023-08-12T10:49:09;96318.13;;;22.89;58.05
23339;BME280;11841;49.368;20.962;2023-08-12T10:51:54;96317.28;;;22.93;57.97
23339;BME280;11841;49.368;20.962;2023-08-12T10:54:40;96319.97;;;22.98;57.22
23339;BME280;11841;49.368;20.962;2023-08-12T10:57:35;96318.03;;;23.04;53.80
23339;BME280;11841;49.368;20.962;2023-08-12T11:00:25;96318.03;;;23.04;55.51
23339;BME280;11841;49.368;20.962;2023-08-12T11:03:11;96307.47;;;23.07;56.19
23339;BME280;11841;49.368;20.962;2023-08-12T11:05:59;96307.91;;;23.24;55.93
23339;BME280;11841;49.368;20.962;2023-08-12T11:08:51;96312.44;;;23.34;53.44
23339;BME280;11841;49.368;20.962;2023-08-12T11:11:37;96307.22;;;23.42;55.44
23339;BME280;11841;49.368;20.962;2023-08-12T11:14:24;96301.78;;;23.47;54.81
23339;BME280;11841;49.368;20.962;2023-08-12T11:17:16;96296.81;;;23.59;55.46
23339;BME280;11841;49.368;20.962;2023-08-12T11:20:03;96296.72;;;23.69;56.25
23339;BME280;11841;49.368;20.962;2023-08-12T11:22:52;96288.53;;;23.74;54.07
23339;BME280;11841;49.368;20.962;2023-08-12T11:25:39;96286.31;;;23.81;54.05
23339;BME280;11841;49.368;20.962;2023-08-12T11:28:25;96284.06;;;23.88;53.79
23339;BME280;11841;49.368;20.962;2023-08-12T11:31:10;96269.66;;;23.93;53.77
23339;BME280;11841;49.368;20.962;2023-08-12T11:33:56;96274.22;;;24.03;54.86
23339;BME280;11841;49.368;20.962;2023-08-12T11:36:42;96272.47;;;24.12;54.28
23339;BME280;11841;49.368;20.962;2023-08-12T11:39:27;96278.34;;;24.19;52.95
23339;BME280;11841;49.368;20.962;2023-08-12T11:42:12;96268.56;;;24.23;53.94
23339;BME280;11841;49.368;20.962;2023-08-12T11:44:58;96276.88;;;24.31;52.12
23339;BME280;11841;49.368;20.962;2023-08-12T11:47:44;96269.50;;;24.37;52.92
23339;BME280;11841;49.368;20.962;2023-08-12T11:50:32;96263.13;;;24.46;52.10
23339;BME280;11841;49.368;20.962;2023-08-12T11:53:18;96264.50;;;24.44;51.80
23339;BME280;11841;49.368;20.962;2023-08-12T11:56:03;96255.88;;;24.42;51.63
23339;BME280;11841;49.368;20.962;2023-08-12T11:58:49;96256.88;;;24.46;50.58
23339;BME280;11841;49.368;20.962;2023-08-12T12:01:38;96248.97;;;24.49;51.17
23339;BME280;11841;49.368;20.962;2023-08-12T12:04:24;96245.13;;;24.55;50.22
23339;BME280;11841;49.368;20.962;2023-08-12T12:07:23;96242.34;;;24.60;50.78
23339;BME280;11841;49.368;20.962;2023-08-12T12:10:12;96244.69;;;24.67;50.69
23339;BME280;11841;49.368;20.962;2023-08-12T12:12:59;96246.03;;;24.69;49.98
23339;BME280;11841;49.368;20.962;2023-08-12T12:15:45;96242.53;;;24.69;50.29
23339;BME280;11841;49.368;20.962;2023-08-12T12:18:30;96235.25;;;24.83;50.52
23339;BME280;11841;49.368;20.962;2023-08-12T12:21:20;96232.38;;;24.93;50.47
23339;BME280;11841;49.368;20.962;2023-08-12T12:24:10;96222.28;;;24.98;49.46
23339;BME280;11841;49.368;20.962;2023-08-12T12:26:56;96223.09;;;24.99;50.45
23339;BME280;11841;49.368;20.962;2023-08-12T12:29:42;96223.97;;;25.13;50.99
23339;BME280;11841;49.368;20.962;2023-08-12T12:32:27;96217.75;;;25.26;51.91
23339;BME280;11841;49.368;20.962;2023-08-12T12:35:12;96222.44;;;25.39;51.05
23339;BME280;11841;49.368;20.962;2023-08-12T12:37:58;96217.31;;;25.38;49.15
23339;BME280;11841;49.368;20.962;2023-08-12T12:40:43;96216.19;;;25.39;49.88
23339;BME280;11841;49.368;20.962;2023-08-12T12:43:28;96220.06;;;25.51;48.84
23339;BME280;11841;49.368;20.962;2023-08-12T12:46:15;96209.63;;;25.58;49.43
23339;BME280;11841;49.368;20.962;2023-08-12T12:49:01;96209.13;;;25.56;49.25
23339;BME280;11841;49.368;20.962;2023-08-12T12:51:46;96205.69;;;25.64;50.48
23339;BME280;11841;49.368;20.962;2023-08-12T12:54:31;96209.25;;;25.78;51.24
23339;BME280;11841;49.368;20.962;2023-08-12T12:57:17;96197.38;;;25.88;50.68
23339;BME280;11841;49.368;20.962;2023-08-12T13:00:03;96193.78;;;25.92;49.17
23339;BME280;11841;49.368;20.962;2023-08-12T13:02:49;96190.66;;;25.99;48.73
23339;BME280;11841;49.368;20.962;2023-08-12T13:05:35;96191.56;;;25.94;48.55
23339;BME280;11841;49.368;20.962;2023-08-12T13:08:20;96189.75;;;26.03;49.28
23339;BME280;11841;49.368;20.962;2023-08-12T13:11:05;96197.41;;;26.15;51.32
23339;BME280;11841;49.368;20.962;2023-08-12T13:13:51;96188.56;;;26.23;49.22
23339;BME280;11841;49.368;20.962;2023-08-12T13:16:36;96190.66;;;26.12;49.50
23339;BME280;11841;49.368;20.962;2023-08-12T13:19:21;96177.28;;;26.16;50.40
23339;BME280;11841;49.368;20.962;2023-08-12T13:22:07;96181.00;;;26.34;50.14
23339;BME280;11841;49.368;20.962;2023-08-12T13:24:52;96180.97;;;26.47;49.22
23339;BME280;11841;49.368;20.962;2023-08-12T13:27:38;96181.03;;;26.56;48.74
23339;BME280;11841;49.368;20.962;2023-08-12T13:30:24;96186.38;;;26.61;48.48
23339;BME280;11841;49.368;20.962;2023-08-12T13:33:10;96185.66;;;26.69;48.79
23339;BME280;11841;49.368;20.962;2023-08-12T13:35:56;96181.22;;;26.73;48.83
23339;BME280;11841;49.368;20.962;2023-08-12T13:38:42;96171.53;;;26.80;48.19
23339;BME280;11841;49.368;20.962;2023-08-12T13:41:27;96175.72;;;26.86;48.41
23339;BME280;11841;49.368;20.962;2023-08-12T13:44:12;96178.31;;;26.91;47.69
23339;BME280;11841;49.368;20.962;2023-08-12T13:46:58;96175.06;;;26.81;48.09
23339;BME280;11841;49.368;20.962;2023-08-12T13:49:43;96175.59;;;26.69;47.59
23339;BME280;11841;49.368;20.962;2023-08-12T13:52:29;96181.84;;;26.70;47.85
23339;BME280;11841;49.368;20.962;2023-08-12T13:55:14;96173.94;;;26.82;47.45
23339;BME280;11841;49.368;20.962;2023-08-12T13:58:00;96167.28;;;26.88;46.44
23339;BME280;11841;49.368;20.962;2023-08-12T14:00:45;96159.84;;;26.80;47.50
23339;BME280;11841;49.368;20.962;2023-08-12T14:03:32;96166.78;;;26.86;47.40
23339;BME280;11841;49.368;20.962;2023-08-12T14:06:17;96158.63;;;26.86;47.82
23339;BME280;11841;49.368;20.962;2023-08-12T14:09:03;96157.56;;;26.95;47.73
23339;BME280;11841;49.368;20.962;2023-08-12T14:11:48;96157.25;;;26.97;47.01
23339;BME280;11841;49.368;20.962;2023-08-12T14:14:34;96160.34;;;26.82;47.09
23339;BME280;11841;49.368;20.962;2023-08-12T14:17:19;96150.63;;;26.67;47.38
23339;BME280;11841;49.368;20.962;2023-08-12T14:20:08;96142.16;;;26.69;48.46
23339;BME280;11841;49.368;20.962;2023-08-12T14:22:53;96148.94;;;26.80;47.72
23339;BME280;11841;49.368;20.962;2023-08-12T14:25:39;96148.69;;;26.90;47.33
23339;BME280;11841;49.368;20.962;2023-08-12T14:28:24;96147.47;;;26.96;47.24